This is the latest recevied weather packets stored in our database for station/object PI8ANH-13. If no packets are shown the sender has not sent any weather packets the latest 10 day(s).
| Time | Temp. | Humidity | Pressure | Rain* | Wind** | Luminosity | Snow |
|---|---|---|---|---|---|---|---|
| 1777620598 | 13.89° C | 41% | 1026 hPa | - | - | - | - |
| 1777619698 | 13.89° C | 41% | 1026 hPa | - | - | - | - |
| 1777618798 | 12.78° C | 44% | 1026 hPa | - | - | - | - |
| 1777617898 | 12.78° C | 44% | 1026 hPa | - | - | - | - |
| 1777616998 | 12.22° C | 47% | 1026 hPa | - | - | - | - |
| 1777616098 | 12.22° C | 47% | 1026 hPa | - | - | - | - |
| 1777615198 | 11.11° C | 50% | 1026 hPa | - | - | - | - |
| 1777614298 | 11.11° C | 50% | 1026 hPa | - | - | - | - |
| 1777613398 | 8.89° C | 57% | 1026 hPa | - | - | - | - |
| 1777612498 | 8.89° C | 57% | 1026 hPa | - | - | - | - |
| 1777611598 | 8.89° C | 57% | 1026 hPa | - | - | - | - |
| 1777610698 | 8.89° C | 57% | 1026 hPa | - | - | - | - |
| 1777609798 | 8.89° C | 57% | 1026 hPa | - | - | - | - |
| 1777608898 | 8.89° C | 57% | 1026 hPa | - | - | - | - |
| 1777607998 | 7.78° C | 61% | 1026 hPa | - | - | - | - |
| 1777607098 | 7.78° C | 61% | 1026 hPa | - | - | - | - |
| 1777606198 | 8.89° C | 57% | 1026 hPa | - | - | - | - |
| 1777605298 | 8.89° C | 57% | 1026 hPa | - | - | - | - |
| 1777604398 | 8.89° C | 53% | 1026 hPa | - | - | - | - |
| 1777603498 | 8.89° C | 53% | 1026 hPa | - | - | - | - |
| 1777602598 | 10° C | 54% | 1026 hPa | - | - | - | - |
| 1777601698 | 10° C | 54% | 1026 hPa | - | - | - | - |
| 1777600798 | 10° C | 54% | 1026 hPa | - | - | - | - |
| 1777599898 | 10° C | 54% | 1026 hPa | - | - | - | - |
| 1777598998 | 11.11° C | 47% | 1026 hPa | - | - | - | - |
* Rain since midnight (hover to see other rain measurements)
** Current wind speed in m/s (hover to see current wind gust speed)